createdAt,value
2023-02-08T00:01:25.567Z,79.43
2023-02-08T00:04:52.816Z,79.48
2023-02-08T00:08:20.495Z,79.59
2023-02-08T00:11:47.828Z,79.67
2023-02-08T00:15:15.327Z,79.66
2023-02-08T00:18:42.892Z,79.58
2023-02-08T00:22:10.569Z,79.54
2023-02-08T00:25:38.092Z,79.47
2023-02-08T00:29:05.196Z,79.35
2023-02-08T00:32:35.024Z,79.46
2023-02-08T00:36:03.934Z,79.37
2023-02-08T00:39:34.505Z,79.57
2023-02-08T00:43:04.797Z,79.62
2023-02-08T00:46:32.194Z,79.36
2023-02-08T00:49:59.966Z,79.33
2023-02-08T00:53:27.212Z,79.35
2023-02-08T00:56:54.778Z,79.33
2023-02-08T01:00:32.018Z,79.22
2023-02-08T01:04:02.343Z,79.16
2023-02-08T01:07:29.661Z,79.07
2023-02-08T01:11:02.831Z,79.16
2023-02-08T01:14:30.468Z,79.23
2023-02-08T01:17:59.487Z,79.19
2023-02-08T01:21:28.825Z,79.13
2023-02-08T01:24:56.294Z,79.12
2023-02-08T01:28:23.569Z,79.41
2023-02-08T01:31:51.099Z,79.32
2023-02-08T01:35:18.855Z,79.33
2023-02-08T01:38:46.788Z,79.27
2023-02-08T01:42:16.360Z,79.37
2023-02-08T01:45:44.473Z,79.35
2023-02-08T01:49:17.511Z,79.24
2023-02-08T01:52:48.577Z,79.20
2023-02-08T01:56:22.590Z,79.12
2023-02-08T01:59:55.571Z,79.34
2023-02-08T02:03:24.807Z,79.34
2023-02-08T02:06:54.632Z,79.42
2023-02-08T02:10:26.942Z,79.42
2023-02-08T02:13:54.469Z,79.28
2023-02-08T02:17:22.699Z,79.35
2023-02-08T02:21:06.000Z,79.34
2023-02-08T02:25:05.242Z,79.44
2023-02-08T02:28:40.678Z,79.27
2023-02-08T02:32:27.658Z,79.27
2023-02-08T02:36:02.152Z,79.25
2023-02-08T02:39:39.202Z,79.33
2023-02-08T02:43:35.408Z,79.34
2023-02-08T02:47:11.874Z,79.17
2023-02-08T02:50:42.968Z,79.43
2023-02-08T02:54:19.458Z,79.44
2023-02-08T02:57:49.453Z,79.54
2023-02-08T03:01:26.029Z,79.49
2023-02-08T03:04:58.294Z,79.49
2023-02-08T03:08:43.708Z,79.54
2023-02-08T03:12:23.806Z,79.57
2023-02-08T03:16:02.311Z,79.43
2023-02-08T03:19:37.550Z,79.43
2023-02-08T03:23:16.245Z,79.42
2023-02-08T03:26:54.067Z,79.49
2023-02-08T03:30:29.182Z,79.57
2023-02-08T03:34:02.085Z,79.56
2023-02-08T03:37:32.990Z,79.54
2023-02-08T03:41:04.291Z,79.61
2023-02-08T03:44:39.208Z,79.62
2023-02-08T03:48:09.741Z,79.68
2023-02-08T03:51:40.727Z,79.54
2023-02-08T03:55:12.935Z,79.54
2023-02-08T03:58:46.389Z,79.53
2023-02-08T04:02:22.248Z,79.63
2023-02-08T04:05:50.794Z,79.68
2023-02-08T04:09:18.141Z,79.73
2023-02-08T04:12:46.746Z,79.71
2023-02-08T04:16:14.425Z,79.68
2023-02-08T04:19:42.259Z,79.68
2023-02-08T04:23:09.679Z,79.68
2023-02-08T04:26:36.996Z,79.67
2023-02-08T04:30:04.993Z,79.62
2023-02-08T04:33:32.275Z,79.52
2023-02-08T04:36:59.475Z,79.62
2023-02-08T04:40:26.876Z,79.41
2023-02-08T04:43:54.076Z,79.60
2023-02-08T04:47:21.493Z,79.65
2023-02-08T04:50:49.378Z,79.74
2023-02-08T04:54:16.647Z,79.66
2023-02-08T04:57:43.877Z,79.68
2023-02-08T05:01:12.073Z,79.58
2023-02-08T05:04:39.360Z,79.49
2023-02-08T05:08:08.349Z,79.68
2023-02-08T05:11:35.584Z,79.55
2023-02-08T05:15:02.788Z,79.57
2023-02-08T05:18:30.039Z,79.35
2023-02-08T05:21:57.265Z,79.30
2023-02-08T05:25:24.416Z,79.50
2023-02-08T05:28:51.772Z,79.38
2023-02-08T05:32:19.233Z,79.04
2023-02-08T05:35:47.106Z,79.32
2023-02-08T05:39:14.207Z,79.15
2023-02-08T05:42:42.541Z,79.18
2023-02-08T05:46:10.267Z,79.13
2023-02-08T05:49:37.561Z,79.09
2023-02-08T05:53:04.762Z,79.22
2023-02-08T05:56:32.562Z,79.22
2023-02-08T05:59:59.755Z,79.14
2023-02-08T06:03:27.067Z,79.19
2023-02-08T06:06:54.355Z,78.96
2023-02-08T06:10:21.884Z,78.91
2023-02-08T06:13:49.536Z,78.95
2023-02-08T06:17:17.030Z,79.03
2023-02-08T06:20:44.225Z,79.06
2023-02-08T06:24:12.110Z,79.02
2023-02-08T06:27:39.283Z,79.16
2023-02-08T06:31:07.153Z,78.94
2023-02-08T06:34:34.608Z,79.07
2023-02-08T06:38:01.970Z,78.99
2023-02-08T06:41:29.251Z,79.00
2023-02-08T06:44:59.486Z,78.89
2023-02-08T06:48:27.193Z,78.92
2023-02-08T06:52:02.104Z,78.75
2023-02-08T06:55:29.417Z,78.65
2023-02-08T06:58:57.437Z,78.52
2023-02-08T07:02:28.004Z,78.61
2023-02-08T07:06:04.452Z,78.46
2023-02-08T07:09:33.870Z,78.48
2023-02-08T07:13:02.769Z,78.47
2023-02-08T07:16:30.291Z,78.29
2023-02-08T07:19:57.485Z,78.16
2023-02-08T07:23:24.987Z,77.92
2023-02-08T07:26:52.260Z,77.78
2023-02-08T07:30:20.014Z,77.63
2023-02-08T07:33:47.615Z,77.47
2023-02-08T07:37:15.164Z,77.33
2023-02-08T07:40:42.937Z,77.30
2023-02-08T07:44:10.488Z,77.14
2023-02-08T07:47:37.688Z,76.80
2023-02-08T07:51:05.446Z,76.33
2023-02-08T07:54:32.884Z,76.40
2023-02-08T07:58:03.324Z,76.35
2023-02-08T08:01:30.844Z,76.22
2023-02-08T08:04:58.344Z,75.67
2023-02-08T08:08:25.560Z,76.13
2023-02-08T08:11:52.701Z,75.29
2023-02-08T08:15:20.138Z,74.81
2023-02-08T08:18:47.294Z,74.18
2023-02-08T08:22:17.605Z,73.43
2023-02-08T08:25:44.830Z,73.61
2023-02-08T08:29:12.021Z,74.14
2023-02-08T08:32:41.843Z,74.54
2023-02-08T08:36:10.425Z,74.34
2023-02-08T08:39:38.055Z,74.48
2023-02-08T08:43:05.264Z,74.31
2023-02-08T08:46:32.526Z,73.93
2023-02-08T08:49:59.897Z,74.16
2023-02-08T08:53:27.407Z,74.05
2023-02-08T08:56:54.702Z,73.83
2023-02-08T09:00:25.377Z,73.62
2023-02-08T09:03:52.879Z,73.48
2023-02-08T09:07:20.743Z,73.27
2023-02-08T09:10:50.559Z,73.16
2023-02-08T09:14:17.823Z,72.77
2023-02-08T09:17:45.736Z,73.15
2023-02-08T09:21:24.721Z,72.82
2023-02-08T09:24:53.547Z,72.75
2023-02-08T09:28:20.783Z,73.02
2023-02-08T09:31:47.970Z,73.18
2023-02-08T09:35:25.265Z,72.13
2023-02-08T09:38:57.936Z,72.18
2023-02-08T09:42:35.932Z,72.28
2023-02-08T09:46:09.464Z,72.18
2023-02-08T09:50:03.676Z,72.00
2023-02-08T09:53:36.220Z,71.46
2023-02-08T09:57:07.459Z,71.68
2023-02-08T10:00:42.354Z,71.36
2023-02-08T10:04:17.291Z,70.97
2023-02-08T10:07:47.908Z,71.43
2023-02-08T10:11:36.489Z,71.33
2023-02-08T10:15:17.106Z,70.90
2023-02-08T10:18:51.012Z,71.08
2023-02-08T10:22:29.789Z,70.33
2023-02-08T10:26:14.525Z,70.83
2023-02-08T10:29:56.579Z,70.38
2023-02-08T10:33:31.445Z,70.48
2023-02-08T10:37:01.131Z,70.28
2023-02-08T10:40:30.643Z,70.02
2023-02-08T10:44:14.763Z,69.62
2023-02-08T10:47:56.266Z,69.39
2023-02-08T10:51:24.142Z,69.36
2023-02-08T10:54:55.416Z,68.62
2023-02-08T10:58:26.374Z,68.86
2023-02-08T11:01:54.396Z,68.87
2023-02-08T11:05:32.297Z,68.07
2023-02-08T11:08:59.718Z,68.21
2023-02-08T11:12:26.867Z,68.45
2023-02-08T11:15:57.364Z,68.51
2023-02-08T11:19:35.528Z,68.17
2023-02-08T11:23:03.784Z,68.04
2023-02-08T11:26:38.532Z,68.28
2023-02-08T11:30:25.238Z,67.98
2023-02-08T11:34:06.716Z,67.94
2023-02-08T11:37:34.268Z,67.77
2023-02-08T11:41:03.715Z,67.62
2023-02-08T11:44:47.301Z,67.40
2023-02-08T11:48:37.494Z,67.72
2023-02-08T11:52:06.075Z,67.11
2023-02-08T11:55:35.463Z,66.75
2023-02-08T11:59:06.811Z,66.93
2023-02-08T12:02:39.212Z,66.63
2023-02-08T12:06:27.037Z,67.05
2023-02-08T12:10:28.371Z,66.95
2023-02-08T12:14:26.531Z,66.46
2023-02-08T12:18:15.358Z,66.83
2023-02-08T12:21:46.545Z,66.64
2023-02-08T12:25:30.159Z,66.20
2023-02-08T12:29:15.127Z,66.24
2023-02-08T12:32:57.791Z,66.01
2023-02-08T12:36:36.306Z,65.82
2023-02-08T12:40:37.797Z,66.12
2023-02-08T12:44:14.934Z,66.08
2023-02-08T12:48:03.764Z,66.36
2023-02-08T12:51:47.776Z,66.06
2023-02-08T12:55:22.663Z,65.75
2023-02-08T12:58:58.992Z,65.39
2023-02-08T13:02:34.276Z,65.25
2023-02-08T13:06:05.469Z,65.76
2023-02-08T13:09:41.547Z,65.49
2023-02-08T13:13:17.529Z,65.58
2023-02-08T13:16:47.668Z,65.88
2023-02-08T13:20:28.889Z,65.71
2023-02-08T13:23:58.007Z,65.79
2023-02-08T13:27:25.904Z,65.52
2023-02-08T13:31:00.922Z,65.30
2023-02-08T13:34:36.562Z,65.51
2023-02-08T13:38:07.425Z,64.79
2023-02-08T13:41:36.458Z,64.41
2023-02-08T13:45:06.524Z,65.13
2023-02-08T13:48:45.302Z,65.53
2023-02-08T13:52:13.300Z,65.75
2023-02-08T13:55:57.285Z,65.72
2023-02-08T13:59:37.219Z,65.63
2023-02-08T14:03:21.825Z,65.61
2023-02-08T14:06:55.661Z,65.87
2023-02-08T14:10:37.472Z,66.26
2023-02-08T14:14:14.790Z,66.69
2023-02-08T14:17:45.776Z,66.43
2023-02-08T14:21:32.195Z,66.29
2023-02-08T14:25:09.750Z,66.50
2023-02-08T14:28:45.047Z,66.63
2023-02-08T14:32:23.439Z,66.90
2023-02-08T14:35:58.296Z,67.07
2023-02-08T14:39:30.370Z,67.26
2023-02-08T14:43:01.207Z,67.13
2023-02-08T14:46:47.470Z,67.34
2023-02-08T14:50:20.299Z,67.71
2023-02-08T14:53:53.700Z,67.63
2023-02-08T14:57:28.126Z,68.32
2023-02-08T15:00:58.230Z,68.43
2023-02-08T15:04:25.971Z,68.60
2023-02-08T15:07:59.017Z,69.31
2023-02-08T15:11:28.821Z,69.34
2023-02-08T15:14:59.042Z,69.55
2023-02-08T15:18:33.285Z,69.59
2023-02-08T15:22:19.979Z,70.10
2023-02-08T15:25:55.604Z,70.08
2023-02-08T15:29:39.056Z,70.25
2023-02-08T15:33:18.023Z,70.39
2023-02-08T15:36:52.763Z,70.58
2023-02-08T15:40:25.780Z,70.86
2023-02-08T15:44:18.995Z,71.13
2023-02-08T15:47:46.485Z,71.09
2023-02-08T15:51:16.246Z,71.50
2023-02-08T15:54:48.178Z,71.72
2023-02-08T15:58:28.739Z,71.86
2023-02-08T16:01:57.312Z,71.96
2023-02-08T16:05:27.553Z,71.96
2023-02-08T16:08:57.939Z,72.11
2023-02-08T16:12:27.524Z,72.12
2023-02-08T16:16:03.774Z,72.35
2023-02-08T16:19:35.944Z,72.53
2023-02-08T16:23:05.149Z,72.66
2023-02-08T16:26:36.898Z,72.98
2023-02-08T16:30:04.262Z,73.22
2023-02-08T16:33:32.971Z,73.27
2023-02-08T16:37:01.100Z,73.40
2023-02-08T16:40:51.574Z,73.56
2023-02-08T16:44:28.037Z,73.89
2023-02-08T16:48:36.076Z,74.20
2023-02-08T16:52:03.415Z,74.70
2023-02-08T16:55:34.791Z,75.15
2023-02-08T16:59:02.214Z,75.27
2023-02-08T17:02:29.454Z,75.57
2023-02-08T17:05:57.351Z,75.54
2023-02-08T17:09:24.510Z,75.67
2023-02-08T17:12:52.980Z,75.82
2023-02-08T17:16:24.754Z,75.95
2023-02-08T17:20:03.443Z,75.95
2023-02-08T17:23:38.253Z,76.14
2023-02-08T17:27:05.630Z,76.07
2023-02-08T17:30:36.217Z,76.05
2023-02-08T17:34:05.323Z,76.03
2023-02-08T17:37:32.641Z,76.00
2023-02-08T17:41:05.872Z,76.04
2023-02-08T17:44:34.148Z,76.12
2023-02-08T17:48:13.618Z,76.36
2023-02-08T17:51:41.921Z,76.34
2023-02-08T17:55:12.715Z,76.37
2023-02-08T17:58:40.495Z,76.49
2023-02-08T18:02:08.849Z,76.70
2023-02-08T18:05:38.974Z,76.84
2023-02-08T18:09:06.390Z,76.93
2023-02-08T18:12:35.371Z,77.18
2023-02-08T18:16:10.065Z,77.18
2023-02-08T18:19:38.353Z,77.47
2023-02-08T18:23:05.741Z,77.44
2023-02-08T18:26:36.789Z,77.76
2023-02-08T18:30:04.140Z,77.92
2023-02-08T18:33:31.719Z,78.01
2023-02-08T18:37:02.332Z,78.30
2023-02-08T18:40:31.357Z,78.49
2023-02-08T18:44:00.660Z,78.63
2023-02-08T18:47:27.954Z,78.80
2023-02-08T18:50:59.174Z,78.91
2023-02-08T18:54:26.640Z,78.86
2023-02-08T18:57:53.894Z,79.05
2023-02-08T19:01:23.333Z,78.93
2023-02-08T19:04:49.328Z,79.26
2023-02-08T19:08:18.178Z,79.36
2023-02-08T19:11:47.261Z,79.37
2023-02-08T19:15:14.485Z,79.44
2023-02-08T19:18:41.809Z,79.67
2023-02-08T19:22:09.080Z,79.70
2023-02-08T19:25:39.904Z,79.87
2023-02-08T19:29:09.266Z,79.93
2023-02-08T19:32:36.513Z,79.93
2023-02-08T19:36:09.535Z,80.06
2023-02-08T19:39:36.950Z,80.15
2023-02-08T19:43:04.321Z,80.26
2023-02-08T19:46:33.073Z,80.45
2023-02-08T19:50:00.531Z,80.42
2023-02-08T19:53:28.449Z,80.64
2023-02-08T19:56:56.071Z,80.80
2023-02-08T20:00:25.811Z,80.76
2023-02-08T20:03:54.475Z,81.02
2023-02-08T20:07:21.685Z,80.92
2023-02-08T20:10:50.741Z,81.19
2023-02-08T20:14:16.831Z,81.10
2023-02-08T20:17:44.805Z,81.10
2023-02-08T20:21:12.685Z,81.16
2023-02-08T20:24:40.053Z,81.38
2023-02-08T20:28:07.976Z,81.38
2023-02-08T20:31:37.307Z,81.60
2023-02-08T20:35:04.787Z,81.63
2023-02-08T20:38:32.243Z,81.68
2023-02-08T20:41:59.420Z,81.76
2023-02-08T20:45:27.480Z,82.04
2023-02-08T20:48:56.506Z,81.97
2023-02-08T20:52:23.575Z,81.95
2023-02-08T20:55:50.850Z,82.07
2023-02-08T20:59:18.280Z,82.11
2023-02-08T21:02:45.761Z,82.12
2023-02-08T21:06:18.435Z,82.07
2023-02-08T21:09:46.110Z,82.36
2023-02-08T21:13:13.435Z,82.64
2023-02-08T21:16:41.234Z,82.61
2023-02-08T21:20:10.148Z,82.62
2023-02-08T21:23:38.643Z,82.76
2023-02-08T21:27:06.770Z,82.84
2023-02-08T21:30:34.008Z,82.84
2023-02-08T21:34:03.102Z,82.88
2023-02-08T21:37:30.299Z,82.91
2023-02-08T21:40:57.614Z,83.10
2023-02-08T21:44:24.825Z,83.15
2023-02-08T21:47:52.281Z,83.23
2023-02-08T21:51:37.443Z,83.21
2023-02-08T21:55:04.807Z,83.28
2023-02-08T21:58:32.246Z,83.37
2023-02-08T22:01:59.588Z,83.33
2023-02-08T22:05:26.896Z,83.32
2023-02-08T22:08:54.449Z,83.30
2023-02-08T22:12:23.537Z,83.57
2023-02-08T22:15:50.972Z,83.67
2023-02-08T22:19:18.880Z,83.53
2023-02-08T22:22:46.547Z,83.45
2023-02-08T22:26:16.585Z,83.51
2023-02-08T22:29:43.936Z,83.42
2023-02-08T22:33:13.925Z,83.49
2023-02-08T22:36:50.451Z,83.65
2023-02-08T22:40:17.753Z,83.57
2023-02-08T22:43:45.470Z,83.61
2023-02-08T22:47:14.298Z,83.59
2023-02-08T22:50:41.661Z,83.44
2023-02-08T22:54:09.194Z,83.47
2023-02-08T22:57:39.412Z,83.38
2023-02-08T23:01:12.969Z,83.66
2023-02-08T23:04:42.648Z,83.67
2023-02-08T23:08:14.162Z,83.74
2023-02-08T23:11:41.464Z,83.84
2023-02-08T23:15:11.220Z,83.81
2023-02-08T23:18:39.454Z,83.82
2023-02-08T23:22:06.929Z,83.83
2023-02-08T23:25:34.284Z,84.06
2023-02-08T23:29:01.611Z,84.07
2023-02-08T23:32:29.003Z,84.06
2023-02-08T23:35:58.835Z,84.07
2023-02-08T23:39:28.739Z,84.09
2023-02-08T23:42:56.202Z,84.07
2023-02-08T23:46:24.940Z,84.10
2023-02-08T23:49:55.934Z,84.19
2023-02-08T23:53:23.322Z,84.15
2023-02-08T23:56:52.142Z,84.09
